Terminal Aerodrome Forecast
Issued by NWS

Home | Current Version | Previous Version | Text Only | Print | Product List | Glossary On
Versions: 1 2 3 4 5 6 7 8 9 10 11 12 13 14 15 16 17 18
000
FTUS41 KCLE 080009 AAA
TAFFDY
TAF AMD
KFDY 080009Z 0800/0824 36008KT P6SM BKN009
      TEMPO 0800/0801 2SM -RA OVC009
     FM080700 03006KT P6SM SCT009 OVC025
     FM082100 08005KT P6SM OVC050=

USA.gov is the U.S. government's official web portal to all federal, state and local government web resources and services.